createdAt,value
2023-02-18T00:01:29.635Z,61.39
2023-02-18T00:03:58.338Z,60.80
2023-02-18T00:06:34.106Z,60.91
2023-02-18T00:09:01.589Z,61.19
2023-02-18T00:11:30.904Z,61.53
2023-02-18T00:14:00.808Z,61.86
2023-02-18T00:16:29.219Z,62.16
2023-02-18T00:18:58.594Z,61.84
2023-02-18T00:21:25.815Z,56.86
2023-02-18T00:23:52.645Z,56.05
2023-02-18T00:26:19.809Z,57.54
2023-02-18T00:28:51.178Z,58.55
2023-02-18T00:31:22.101Z,59.07
2023-02-18T00:33:49.133Z,59.32
2023-02-18T00:36:18.562Z,59.51
2023-02-18T00:38:47.702Z,59.89
2023-02-18T00:41:15.139Z,60.46
2023-02-18T00:43:42.463Z,61.01
2023-02-18T00:46:10.482Z,61.00
2023-02-18T00:48:37.309Z,60.76
2023-02-18T00:51:05.274Z,61.23
2023-02-18T00:53:32.513Z,61.30
2023-02-18T00:55:59.077Z,61.51
2023-02-18T00:58:25.752Z,61.51
2023-02-18T01:00:53.469Z,61.73
2023-02-18T01:03:21.739Z,61.80
2023-02-18T01:05:50.156Z,62.07
2023-02-18T01:08:18.192Z,62.20
2023-02-18T01:10:47.856Z,61.67
2023-02-18T01:13:15.890Z,57.37
2023-02-18T01:15:43.160Z,55.58
2023-02-18T01:18:10.688Z,57.42
2023-02-18T01:20:40.852Z,58.86
2023-02-18T01:23:07.576Z,59.72
2023-02-18T01:25:34.909Z,60.40
2023-02-18T01:28:01.800Z,60.87
2023-02-18T01:30:28.425Z,61.11
2023-02-18T01:32:56.775Z,61.51
2023-02-18T01:35:23.826Z,61.74
2023-02-18T01:37:50.609Z,62.29
2023-02-18T01:40:24.587Z,61.62
2023-02-18T01:42:51.164Z,55.77
2023-02-18T01:45:38.348Z,56.16
2023-02-18T01:48:08.016Z,58.06
2023-02-18T01:50:38.137Z,59.05
2023-02-18T01:53:04.712Z,59.99
2023-02-18T01:55:33.165Z,60.64
2023-02-18T01:57:59.966Z,61.02
2023-02-18T02:00:26.577Z,61.45
2023-02-18T02:02:53.508Z,61.91
2023-02-18T02:05:21.367Z,62.29
2023-02-18T02:07:51.675Z,61.58
2023-02-18T02:10:18.629Z,56.51
2023-02-18T02:12:54.913Z,57.11
2023-02-18T02:15:30.181Z,58.72
2023-02-18T02:18:33.896Z,60.04
2023-02-18T02:21:46.845Z,60.89
2023-02-18T02:24:40.957Z,61.72
2023-02-18T02:27:28.756Z,62.12
2023-02-18T02:30:26.575Z,62.61
2023-02-18T02:33:30.901Z,58.59
2023-02-18T02:36:14.299Z,56.03
2023-02-18T02:39:00.325Z,58.04
2023-02-18T02:42:08.189Z,59.48
2023-02-18T02:44:55.806Z,60.43
2023-02-18T02:47:38.061Z,61.19
2023-02-18T02:50:20.909Z,61.93
2023-02-18T02:52:51.958Z,62.28
2023-02-18T02:55:18.700Z,62.05
2023-02-18T02:57:50.353Z,57.31
2023-02-18T03:00:23.011Z,57.64
2023-02-18T03:03:11.953Z,59.45
2023-02-18T03:06:25.213Z,61.04
2023-02-18T03:09:30.048Z,62.38
2023-02-18T03:12:05.340Z,58.87
2023-02-18T03:15:07.050Z,57.64
2023-02-18T03:17:45.912Z,59.43
2023-02-18T03:20:25.464Z,60.83
2023-02-18T03:22:53.276Z,62.19
2023-02-18T03:25:21.209Z,60.59
2023-02-18T03:27:59.542Z,56.76
2023-02-18T03:30:32.757Z,58.28
2023-02-18T03:33:04.001Z,59.97
2023-02-18T03:35:31.169Z,60.89
2023-02-18T03:38:17.333Z,61.77
2023-02-18T03:40:43.937Z,62.38
2023-02-18T03:43:10.504Z,61.76
2023-02-18T03:45:37.038Z,57.20
2023-02-18T03:48:04.236Z,57.09
2023-02-18T03:50:30.709Z,58.67
2023-02-18T03:52:57.187Z,60.18
2023-02-18T03:55:23.732Z,61.41
2023-02-18T03:57:50.320Z,62.07
2023-02-18T04:00:17.492Z,61.93
2023-02-18T04:02:44.068Z,57.54
2023-02-18T04:05:12.499Z,56.72
2023-02-18T04:07:38.998Z,58.62
2023-02-18T04:10:07.756Z,60.14
2023-02-18T04:12:34.292Z,61.27
2023-02-18T04:15:00.837Z,61.88
2023-02-18T04:17:27.328Z,62.38
2023-02-18T04:19:53.868Z,60.61
2023-02-18T04:22:20.555Z,57.10
2023-02-18T04:24:47.147Z,58.28
2023-02-18T04:27:13.683Z,59.58
2023-02-18T04:29:40.410Z,61.09
2023-02-18T04:32:07.029Z,61.80
2023-02-18T04:34:33.594Z,62.60
2023-02-18T04:37:00.132Z,59.64
2023-02-18T04:39:26.661Z,56.27
2023-02-18T04:41:53.295Z,57.43
2023-02-18T04:44:19.910Z,59.16
2023-02-18T04:46:47.380Z,60.44
2023-02-18T04:49:13.904Z,61.58
2023-02-18T04:51:40.390Z,62.36
2023-02-18T04:54:06.945Z,62.17
2023-02-18T04:56:33.423Z,57.46
2023-02-18T04:58:59.995Z,56.93
2023-02-18T05:01:26.588Z,58.76
2023-02-18T05:03:53.323Z,60.39
2023-02-18T05:06:19.850Z,61.35
2023-02-18T05:08:46.352Z,62.18
2023-02-18T05:11:12.846Z,62.19
2023-02-18T05:13:39.405Z,57.78
2023-02-18T05:16:06.418Z,57.04
2023-02-18T05:18:33.319Z,58.61
2023-02-18T05:20:59.976Z,60.12
2023-02-18T05:23:26.815Z,61.27
2023-02-18T05:25:54.716Z,62.28
2023-02-18T05:28:22.015Z,62.44
2023-02-18T05:30:48.642Z,57.98
2023-02-18T05:33:15.200Z,56.85
2023-02-18T05:35:41.745Z,58.81
2023-02-18T05:38:09.300Z,60.11
2023-02-18T05:40:35.773Z,61.20
2023-02-18T05:43:02.338Z,62.28
2023-02-18T05:45:28.917Z,61.89
2023-02-18T05:47:55.434Z,57.08
2023-02-18T05:50:21.949Z,57.41
2023-02-18T05:52:48.466Z,59.16
2023-02-18T05:55:14.990Z,60.70
2023-02-18T05:57:41.547Z,61.75
2023-02-18T06:00:09.572Z,62.57
2023-02-18T06:02:36.911Z,58.88
2023-02-18T06:05:04.784Z,56.67
2023-02-18T06:07:31.328Z,58.46
2023-02-18T06:09:57.864Z,60.28
2023-02-18T06:12:24.620Z,61.54
2023-02-18T06:14:51.322Z,62.53
2023-02-18T06:17:18.185Z,58.50
2023-02-18T06:19:45.418Z,57.17
2023-02-18T06:22:12.806Z,59.10
2023-02-18T06:24:39.587Z,60.51
2023-02-18T06:27:06.803Z,61.86
2023-02-18T06:29:35.260Z,61.90
2023-02-18T06:32:02.026Z,57.32
2023-02-18T06:34:28.682Z,57.50
2023-02-18T06:36:55.551Z,59.42
2023-02-18T06:39:22.253Z,60.84
2023-02-18T06:41:48.724Z,62.14
2023-02-18T06:44:16.710Z,62.41
2023-02-18T06:46:44.156Z,58.45
2023-02-18T06:49:10.702Z,56.43
2023-02-18T06:51:37.268Z,58.03
2023-02-18T06:54:05.268Z,59.88
2023-02-18T06:56:32.133Z,60.92
2023-02-18T06:58:58.726Z,61.88
2023-02-18T07:01:25.318Z,62.62
2023-02-18T07:03:52.050Z,58.92
2023-02-18T07:06:18.630Z,56.43
2023-02-18T07:08:45.411Z,58.10
2023-02-18T07:11:12.006Z,59.80
2023-02-18T07:13:38.499Z,60.98
2023-02-18T07:16:05.551Z,62.20
2023-02-18T07:18:32.264Z,61.82
2023-02-18T07:20:58.806Z,57.36
2023-02-18T07:23:25.345Z,56.83
2023-02-18T07:25:52.021Z,58.66
2023-02-18T07:28:18.648Z,59.96
2023-02-18T07:30:45.177Z,61.03
2023-02-18T07:33:13.515Z,61.71
2023-02-18T07:35:40.125Z,62.25
2023-02-18T07:38:06.717Z,58.47
2023-02-18T07:40:33.348Z,55.82
2023-02-18T07:43:00.120Z,57.41
2023-02-18T07:45:26.782Z,58.80
2023-02-18T07:47:53.354Z,59.89
2023-02-18T07:50:20.081Z,60.73
2023-02-18T07:52:46.616Z,61.57
2023-02-18T07:55:13.229Z,61.93
2023-02-18T07:57:56.645Z,62.52
2023-02-18T08:00:24.277Z,59.05
2023-02-18T08:02:51.001Z,55.68
2023-02-18T08:05:17.807Z,57.33
2023-02-18T08:07:44.497Z,58.51
2023-02-18T08:10:11.176Z,59.46
2023-02-18T08:12:38.038Z,59.90
2023-02-18T08:15:05.275Z,60.57
2023-02-18T08:17:32.125Z,61.06
2023-02-18T08:19:58.918Z,61.50
2023-02-18T08:22:26.607Z,61.90
2023-02-18T08:24:56.493Z,61.71
2023-02-18T08:27:24.068Z,62.11
2023-02-18T08:29:51.467Z,62.15
2023-02-18T08:32:18.331Z,62.61
2023-02-18T08:34:48.081Z,57.63
2023-02-18T08:37:14.888Z,55.31
2023-02-18T08:39:41.591Z,56.98
2023-02-18T08:42:08.181Z,58.01
2023-02-18T08:44:34.701Z,58.56
2023-02-18T08:47:01.340Z,58.69
2023-02-18T08:49:28.033Z,59.38
2023-02-18T08:51:55.518Z,59.17
2023-02-18T08:54:22.417Z,59.74
2023-02-18T08:56:48.935Z,59.85
2023-02-18T08:59:15.436Z,59.61
2023-02-18T09:01:42.069Z,59.27
2023-02-18T09:04:08.735Z,58.64
2023-02-18T09:06:38.195Z,58.55
2023-02-18T09:09:05.236Z,57.97
2023-02-18T09:11:32.077Z,57.51
2023-02-18T09:13:58.744Z,58.01
2023-02-18T09:16:27.542Z,57.44
2023-02-18T09:18:54.043Z,56.56
2023-02-18T09:21:21.960Z,56.71
2023-02-18T09:23:49.507Z,56.47
2023-02-18T09:26:22.254Z,55.14
2023-02-18T09:28:49.473Z,55.72
2023-02-18T09:31:19.842Z,55.24
2023-02-18T09:33:53.546Z,53.61
2023-02-18T09:36:20.514Z,53.59
2023-02-18T09:38:47.753Z,52.95
2023-02-18T09:41:30.662Z,51.99
2023-02-18T09:44:00.232Z,50.69
2023-02-18T09:46:39.400Z,49.39
2023-02-18T09:49:36.782Z,49.16
2023-02-18T09:52:33.983Z,49.18
2023-02-18T09:55:33.442Z,49.56
2023-02-18T09:58:13.399Z,46.92
2023-02-18T10:00:50.243Z,47.39
2023-02-18T10:03:20.438Z,46.60
2023-02-18T10:06:03.924Z,46.39
2023-02-18T10:08:42.969Z,47.09
2023-02-18T10:11:23.030Z,46.53
2023-02-18T10:13:50.315Z,46.62
2023-02-18T10:16:18.782Z,46.43
2023-02-18T10:18:49.249Z,47.15
2023-02-18T10:21:27.015Z,47.75
2023-02-18T10:24:10.043Z,47.85
2023-02-18T10:26:38.163Z,48.04
2023-02-18T10:29:14.457Z,48.19
2023-02-18T10:31:46.211Z,49.14
2023-02-18T10:34:30.002Z,48.96
2023-02-18T10:37:34.742Z,48.26
2023-02-18T10:40:40.410Z,48.18
2023-02-18T10:43:18.276Z,47.83
2023-02-18T10:46:05.117Z,48.18
2023-02-18T10:49:14.770Z,48.03
2023-02-18T10:51:49.852Z,47.53
2023-02-18T10:54:16.393Z,47.98
2023-02-18T10:56:51.667Z,48.07
2023-02-18T10:59:31.418Z,48.60
2023-02-18T11:02:06.206Z,48.90
2023-02-18T11:04:42.125Z,49.71
2023-02-18T11:07:15.861Z,49.84
2023-02-18T11:09:52.216Z,50.91
2023-02-18T11:12:24.734Z,51.82
2023-02-18T11:15:09.546Z,52.27
2023-02-18T11:17:39.264Z,52.08
2023-02-18T11:20:33.929Z,52.15
2023-02-18T11:23:06.673Z,53.42
2023-02-18T11:25:34.482Z,53.73
2023-02-18T11:28:21.493Z,55.62
2023-02-18T11:30:53.858Z,55.97
2023-02-18T11:33:32.714Z,56.14
2023-02-18T11:36:19.578Z,57.18
2023-02-18T11:38:57.862Z,58.48
2023-02-18T11:41:48.312Z,59.04
2023-02-18T11:44:47.897Z,59.89
2023-02-18T11:47:14.501Z,61.58
2023-02-18T11:49:43.808Z,61.35
2023-02-18T11:52:32.862Z,61.51
2023-02-18T11:55:12.015Z,63.04
2023-02-18T11:57:44.177Z,61.06
2023-02-18T12:00:22.190Z,56.96
2023-02-18T12:02:51.891Z,58.36
2023-02-18T12:05:28.136Z,61.78
2023-02-18T12:08:11.202Z,63.78
2023-02-18T12:10:44.188Z,59.18
2023-02-18T12:13:41.060Z,58.22
2023-02-18T12:16:24.320Z,61.29
2023-02-18T12:19:23.608Z,63.34
2023-02-18T12:22:02.695Z,58.59
2023-02-18T12:24:51.343Z,57.82
2023-02-18T12:27:42.632Z,60.70
2023-02-18T12:31:07.142Z,63.04
2023-02-18T12:34:04.604Z,57.95
2023-02-18T12:36:34.126Z,57.89
2023-02-18T12:39:29.484Z,60.76
2023-02-18T12:42:29.643Z,63.23
2023-02-18T12:45:21.188Z,58.59
2023-02-18T12:48:01.036Z,58.29
2023-02-18T12:50:45.717Z,61.97
2023-02-18T12:53:32.377Z,62.27
2023-02-18T12:56:23.666Z,58.46
2023-02-18T12:59:46.820Z,58.66
2023-02-18T13:02:44.137Z,62.62
2023-02-18T13:05:32.802Z,61.79
2023-02-18T13:08:35.476Z,57.57
2023-02-18T13:11:46.231Z,59.75
2023-02-18T13:14:24.146Z,63.25
2023-02-18T13:16:55.549Z,61.30
2023-02-18T13:19:34.378Z,57.53
2023-02-18T13:22:06.707Z,59.14
2023-02-18T13:24:43.394Z,62.02
2023-02-18T13:27:28.005Z,63.88
2023-02-18T13:30:22.458Z,60.36
2023-02-18T13:33:27.477Z,57.63
2023-02-18T13:36:31.828Z,60.72
2023-02-18T13:39:19.240Z,63.14
2023-02-18T13:41:48.591Z,59.46
2023-02-18T13:44:21.605Z,57.46
2023-02-18T13:46:54.735Z,59.88
2023-02-18T13:49:42.833Z,62.80
2023-02-18T13:52:18.859Z,63.44
2023-02-18T13:54:46.155Z,59.40
2023-02-18T13:57:21.985Z,57.37
2023-02-18T14:00:12.434Z,60.04
2023-02-18T14:02:55.768Z,62.88
2023-02-18T14:05:24.309Z,62.43
2023-02-18T14:08:33.945Z,58.82
2023-02-18T14:11:13.166Z,58.14
2023-02-18T14:14:25.484Z,60.73
2023-02-18T14:17:29.372Z,63.57
2023-02-18T14:20:08.393Z,60.13
2023-02-18T14:22:52.092Z,56.97
2023-02-18T14:25:35.839Z,59.02
2023-02-18T14:28:44.456Z,61.95
2023-02-18T14:31:35.565Z,63.20
2023-02-18T14:34:22.376Z,58.74
2023-02-18T14:37:00.566Z,57.40
2023-02-18T14:39:52.291Z,60.22
2023-02-18T14:42:37.920Z,62.60
2023-02-18T14:45:16.921Z,63.14
2023-02-18T14:48:16.517Z,59.32
2023-02-18T14:50:45.999Z,57.79
2023-02-18T14:53:17.953Z,60.46
2023-02-18T14:55:59.571Z,62.79
2023-02-18T14:58:48.542Z,62.90
2023-02-18T15:01:31.375Z,58.17
2023-02-18T15:03:58.537Z,57.58
2023-02-18T15:06:29.752Z,59.67
2023-02-18T15:08:58.274Z,61.23
2023-02-18T15:11:47.586Z,63.67
2023-02-18T15:14:27.275Z,60.97
2023-02-18T15:16:54.376Z,57.13
2023-02-18T15:19:25.832Z,58.74
2023-02-18T15:21:56.031Z,61.05
2023-02-18T15:24:35.351Z,63.19
2023-02-18T15:27:24.952Z,61.73
2023-02-18T15:29:57.032Z,57.55
2023-02-18T15:32:27.219Z,59.09
2023-02-18T15:35:01.040Z,61.21
2023-02-18T15:37:29.012Z,63.07
2023-02-18T15:39:56.576Z,62.64
2023-02-18T15:42:35.830Z,58.67
2023-02-18T15:45:23.844Z,57.23
2023-02-18T15:47:56.653Z,59.91
2023-02-18T15:50:28.443Z,62.24
2023-02-18T15:52:59.277Z,64.34
2023-02-18T15:55:39.065Z,61.05
2023-02-18T15:58:14.514Z,57.48
2023-02-18T16:00:49.077Z,58.51
2023-02-18T16:03:26.587Z,60.55
2023-02-18T16:06:17.008Z,62.93
2023-02-18T16:09:07.381Z,62.08
2023-02-18T16:11:38.545Z,57.87
2023-02-18T16:14:08.105Z,58.74
2023-02-18T16:16:38.833Z,61.02
2023-02-18T16:19:05.596Z,63.80
2023-02-18T16:21:39.341Z,61.75
2023-02-18T16:24:27.745Z,57.88
2023-02-18T16:26:57.152Z,58.81
2023-02-18T16:29:40.234Z,61.28
2023-02-18T16:32:07.221Z,64.01
2023-02-18T16:34:37.810Z,61.61
2023-02-18T16:37:23.411Z,57.64
2023-02-18T16:39:54.196Z,58.83
2023-02-18T16:42:21.345Z,61.22
2023-02-18T16:44:49.398Z,63.92
2023-02-18T16:47:17.508Z,62.13
2023-02-18T16:49:46.040Z,58.70
2023-02-18T16:52:15.568Z,57.56
2023-02-18T16:54:43.105Z,59.71
2023-02-18T16:57:12.821Z,61.90
2023-02-18T16:59:39.429Z,63.93
2023-02-18T17:02:16.787Z,61.65
2023-02-18T17:04:43.350Z,57.84
2023-02-18T17:07:10.810Z,58.52
2023-02-18T17:09:37.839Z,60.83
2023-02-18T17:12:04.591Z,63.10
2023-02-18T17:14:31.505Z,61.66
2023-02-18T17:16:58.485Z,57.93
2023-02-18T17:19:25.060Z,58.40
2023-02-18T17:21:51.760Z,60.62
2023-02-18T17:24:18.824Z,62.78
2023-02-18T17:26:45.544Z,63.80
2023-02-18T17:29:13.190Z,60.34
2023-02-18T17:31:43.853Z,57.49
2023-02-18T17:34:21.197Z,58.63
2023-02-18T17:36:47.767Z,60.74
2023-02-18T17:39:16.980Z,62.67
2023-02-18T17:41:44.003Z,61.67
2023-02-18T17:44:13.685Z,58.01
2023-02-18T17:46:40.334Z,58.38
2023-02-18T17:49:06.933Z,60.38
2023-02-18T17:51:36.156Z,62.58
2023-02-18T17:54:05.771Z,61.94
2023-02-18T17:56:34.765Z,58.28
2023-02-18T17:59:01.305Z,58.39
2023-02-18T18:01:27.951Z,60.89
2023-02-18T18:03:54.705Z,62.63
2023-02-18T18:06:21.457Z,61.17
2023-02-18T18:08:48.241Z,58.12
2023-02-18T18:11:21.709Z,58.81
2023-02-18T18:13:48.668Z,61.49
2023-02-18T18:16:17.032Z,63.84
2023-02-18T18:18:44.150Z,61.61
2023-02-18T18:21:29.318Z,57.83
2023-02-18T18:23:55.956Z,58.75
2023-02-18T18:26:22.833Z,60.61
2023-02-18T18:28:49.446Z,62.91
2023-02-18T18:31:18.594Z,61.42
2023-02-18T18:33:52.294Z,58.41
2023-02-18T18:36:19.735Z,58.87
2023-02-18T18:38:46.520Z,60.95
2023-02-18T18:41:16.146Z,63.60
2023-02-18T18:43:42.762Z,61.48
2023-02-18T18:46:09.556Z,57.22
2023-02-18T18:48:36.240Z,58.32
2023-02-18T18:51:03.090Z,60.74
2023-02-18T18:53:33.400Z,62.43
2023-02-18T18:56:04.221Z,63.91
2023-02-18T18:58:31.180Z,60.56
2023-02-18T19:01:03.793Z,56.93
2023-02-18T19:03:33.187Z,58.50
2023-02-18T19:05:59.803Z,61.42
2023-02-18T19:08:26.468Z,63.75
2023-02-18T19:10:55.997Z,61.35
2023-02-18T19:13:28.759Z,57.53
2023-02-18T19:16:01.262Z,58.65
2023-02-18T19:18:28.402Z,61.26
2023-02-18T19:20:55.702Z,63.35
2023-02-18T19:23:22.299Z,60.45
2023-02-18T19:25:48.883Z,56.53
2023-02-18T19:28:15.694Z,58.02
2023-02-18T19:30:42.593Z,60.54
2023-02-18T19:33:13.025Z,63.31
2023-02-18T19:35:41.212Z,61.32
2023-02-18T19:38:09.782Z,57.48
2023-02-18T19:40:36.790Z,58.70
2023-02-18T19:43:04.448Z,61.35
2023-02-18T19:45:33.207Z,63.40
2023-02-18T19:48:01.220Z,60.24
2023-02-18T19:50:30.786Z,57.48
2023-02-18T19:52:59.314Z,59.61
2023-02-18T19:55:26.123Z,62.25
2023-02-18T19:57:52.946Z,63.41
2023-02-18T20:00:24.363Z,59.62
2023-02-18T20:02:51.106Z,56.78
2023-02-18T20:05:18.745Z,59.04
2023-02-18T20:07:46.190Z,61.03
2023-02-18T20:10:19.471Z,63.57
2023-02-18T20:12:51.607Z,61.22
2023-02-18T20:15:18.617Z,57.29
2023-02-18T20:17:45.265Z,58.84
2023-02-18T20:20:11.897Z,61.61
2023-02-18T20:22:38.525Z,63.39
2023-02-18T20:25:05.605Z,60.22
2023-02-18T20:27:33.424Z,57.08
2023-02-18T20:30:00.092Z,58.90
2023-02-18T20:32:26.779Z,61.73
2023-02-18T20:34:53.290Z,63.53
2023-02-18T20:37:19.946Z,60.53
2023-02-18T20:39:46.627Z,56.65
2023-02-18T20:42:16.619Z,58.52
2023-02-18T20:44:44.881Z,61.18
2023-02-18T20:47:12.877Z,63.27
2023-02-18T20:49:39.991Z,60.09
2023-02-18T20:52:08.065Z,57.30
2023-02-18T20:54:34.860Z,59.50
2023-02-18T20:57:01.882Z,62.03
2023-02-18T20:59:32.722Z,63.47
2023-02-18T21:02:00.354Z,59.24
2023-02-18T21:04:27.339Z,57.64
2023-02-18T21:06:54.697Z,60.26
2023-02-18T21:09:21.425Z,62.71
2023-02-18T21:11:48.415Z,63.03
2023-02-18T21:14:15.116Z,58.55
2023-02-18T21:16:41.946Z,57.69
2023-02-18T21:19:13.464Z,60.28
2023-02-18T21:21:40.811Z,63.08
2023-02-18T21:24:07.596Z,62.53
2023-02-18T21:26:34.603Z,58.30
2023-02-18T21:29:04.988Z,58.28
2023-02-18T21:31:39.196Z,60.93
2023-02-18T21:34:10.794Z,63.50
2023-02-18T21:36:37.934Z,60.72
2023-02-18T21:39:08.300Z,57.24
2023-02-18T21:41:39.911Z,59.27
2023-02-18T21:44:08.303Z,62.14
2023-02-18T21:46:35.945Z,63.63
2023-02-18T21:49:08.709Z,59.84
2023-02-18T21:52:01.299Z,57.38
2023-02-18T21:54:45.862Z,60.53
2023-02-18T21:57:15.657Z,63.51
2023-02-18T21:59:44.553Z,61.47
2023-02-18T22:02:20.900Z,57.61
2023-02-18T22:04:48.588Z,59.27
2023-02-18T22:07:16.506Z,62.10
2023-02-18T22:09:46.656Z,63.63
2023-02-18T22:12:15.442Z,59.76
2023-02-18T22:14:42.933Z,57.58
2023-02-18T22:17:10.049Z,60.24
2023-02-18T22:19:36.772Z,63.30
2023-02-18T22:22:03.432Z,62.23
2023-02-18T22:24:31.359Z,58.12
2023-02-18T22:27:00.771Z,59.12
2023-02-18T22:29:29.327Z,62.04
2023-02-18T22:31:56.100Z,63.81
2023-02-18T22:34:23.504Z,60.40
2023-02-18T22:36:50.030Z,57.34
2023-02-18T22:39:17.226Z,59.39
2023-02-18T22:41:43.914Z,62.55
2023-02-18T22:44:14.166Z,62.99
2023-02-18T22:46:41.128Z,58.76
2023-02-18T22:49:08.426Z,58.28
2023-02-18T22:51:39.192Z,60.92
2023-02-18T22:54:10.782Z,63.50
2023-02-18T22:56:37.445Z,61.38
2023-02-18T22:59:05.212Z,57.37
2023-02-18T23:01:38.056Z,58.73
2023-02-18T23:04:13.508Z,61.38
2023-02-18T23:06:44.067Z,63.82
2023-02-18T23:09:20.529Z,60.97
2023-02-18T23:11:56.825Z,57.25
2023-02-18T23:14:24.930Z,59.04
2023-02-18T23:17:13.684Z,61.71
2023-02-18T23:19:52.101Z,63.75
2023-02-18T23:22:27.616Z,59.13
2023-02-18T23:24:54.150Z,57.55
2023-02-18T23:27:21.703Z,60.14
2023-02-18T23:29:48.920Z,62.52
2023-02-18T23:32:15.806Z,63.59
2023-02-18T23:34:42.472Z,59.66
2023-02-18T23:37:09.551Z,56.87
2023-02-18T23:39:36.344Z,59.41
2023-02-18T23:42:03.067Z,62.30
2023-02-18T23:44:29.710Z,62.67
2023-02-18T23:46:56.295Z,58.72
2023-02-18T23:49:25.096Z,57.34
2023-02-18T23:51:54.671Z,59.93
2023-02-18T23:54:22.371Z,62.28
2023-02-18T23:56:48.980Z,63.28
2023-02-18T23:59:15.644Z,59.27
